CST,Max TemperatureF,Mean TemperatureF,Min TemperatureF,Max Dew PointF,MeanDew PointF,Min DewpointF,Max Humidity, Mean Humidity, Min Humidity, Max Sea Level PressureIn, Mean Sea Level PressureIn, Min Sea Level PressureIn, Max VisibilityMiles, Mean VisibilityMiles, Min VisibilityMiles, Max Wind SpeedMPH, Mean Wind SpeedMPH, Max Gust SpeedMPH,PrecipitationIn, CloudCover, Events, WindDirDegrees
2013-2-1,28,13,-3,17,5,-9,76,68,59,30.51,30.28,30.12,10,10,10,24,10,28,0.00,6,,182
2013-2-2,38,31,24,28,21,16,85,74,63,30.24,30.15,30.07,10,10,10,25,8,31,T,7,Snow,314
2013-2-3,41,30,19,28,21,12,75,63,51,30.26,30.07,29.81,10,10,10,23,10,29,0.00,3,,207
2013-2-4,37,30,23,27,20,18,92,80,68,30.06,29.97,29.79,10,9,7,25,9,30,0.00,7,,310
2013-2-5,50,38,26,32,26,23,92,67,42,30.11,29.98,29.85,10,9,6,23,8,26,0.00,4,,282
2013-2-6,49,39,29,37,31,25,92,74,56,30.10,29.96,29.86,10,10,10,21,9,25,0.00,6,,149
2013-2-7,37,34,30,32,28,23,89,79,69,30.28,30.09,29.91,10,7,4,29,15,35,0.00,8,,348
2013-2-8,33,30,26,26,24,21,85,77,69,30.39,30.29,30.17,10,9,6,18,9,22,0.00,7,,132
2013-2-9,49,40,30,34,30,26,92,74,56,30.21,29.95,29.72,10,8,5,26,18,32,T,6,,156
2013-2-10,48,40,31,41,32,21,92,77,61,29.81,29.47,29.27,10,7,2,33,21,45,0.03,8,Rain-Snow,198
2013-2-11,36,30,23,23,21,18,81,69,56,30.20,30.08,29.86,10,10,9,30,14,39,T,5,Snow,308
2013-2-12,49,35,20,24,20,17,92,63,34,30.19,30.04,29.93,10,9,7,16,6,21,0.00,1,Fog,205
2013-2-13,55,39,22,28,24,19,81,57,32,29.93,29.83,29.74,10,10,10,18,6,24,0.00,3,,238
2013-2-14,46,35,23,31,26,14,92,68,43,30.31,30.07,29.81,10,8,1,26,15,32,0.03,6,Rain-Snow,322
2013-2-15,33,24,15,23,17,8,84,66,47,30.41,30.37,30.31,10,8,1,21,8,24,0.05,6,Snow,343
2013-2-16,33,23,13,23,17,9,88,76,63,30.38,30.20,30.06,10,10,10,14,7,20,0.00,5,,164
2013-2-17,54,39,23,31,25,18,81,61,41,30.05,29.83,29.58,10,10,10,22,12,28,0.00,5,,151
2013-2-18,44,33,21,31,23,11,82,68,53,30.10,29.82,29.57,10,9,1,35,18,44,0.01,5,Snow,335
2013-2-19,27,18,8,10,2,-2,73,51,29,30.44,30.31,30.07,10,10,8,31,16,37,T,2,Snow,331
2013-2-20,26,15,4,6,1,-4,83,60,37,30.46,30.38,30.24,10,10,10,15,8,17,0.00,6,,84
2013-2-21,26,24,21,20,16,6,92,74,55,30.29,30.00,29.85,10,3,0,20,12,25,0.61,8,Fog-Snow,52
2013-2-22,24,18,12,18,14,9,91,77,62,30.09,29.98,29.85,10,8,2,18,11,23,0.05,6,Snow,314
2013-2-23,37,21,5,24,14,1,91,75,59,30.06,29.96,29.88,10,7,4,15,9,17,0.00,1,,159
2013-2-24,42,30,17,28,22,15,92,76,59,30.11,30.02,29.95,10,6,3,16,8,18,0.00,7,,123
2013-2-25,34,30,26,27,24,23,85,80,75,30.13,30.05,29.94,6,3,1,18,12,22,T,8,,360
2013-2-26,33,30,27,28,26,23,92,84,75,29.95,29.87,29.79,6,2,1,21,15,26,0.01,8,Snow,348
2013-2-27,37,31,25,25,22,19,81,68,54,30.13,30.01,29.91,10,8,5,28,18,36,0.00,8,,331
2013-2-28,32,29,26,23,21,20,78,74,69,30.27,30.22,30.11,10,10,7,25,14,30,0.00,8,,331